sensor_id;sensor_type;location;lat;lon;timestamp;temperature;humidity
14735;DHT22;7458;49.002;8.472;2022-12-29T00:00:04;13.50;97.20
14735;DHT22;7458;49.002;8.472;2022-12-29T00:02:31;13.50;97.20
14735;DHT22;7458;49.002;8.472;2022-12-29T00:04:56;13.40;97.20
14735;DHT22;7458;49.002;8.472;2022-12-29T00:07:22;13.50;97.30
14735;DHT22;7458;49.002;8.472;2022-12-29T00:09:48;13.40;97.40
14735;DHT22;7458;49.002;8.472;2022-12-29T00:12:15;13.40;97.50
14735;DHT22;7458;49.002;8.472;2022-12-29T00:14:40;13.40;97.50
14735;DHT22;7458;49.002;8.472;2022-12-29T00:17:25;13.50;97.40
14735;DHT22;7458;49.002;8.472;2022-12-29T00:19:50;13.40;97.60
14735;DHT22;7458;49.002;8.472;2022-12-29T00:22:35;13.50;97.50
14735;DHT22;7458;49.002;8.472;2022-12-29T00:25:19;13.40;97.40
14735;DHT22;7458;49.002;8.472;2022-12-29T00:28:06;13.50;97.50
14735;DHT22;7458;49.002;8.472;2022-12-29T00:30:52;13.50;97.50
14735;DHT22;7458;49.002;8.472;2022-12-29T00:33:36;13.40;97.50
14735;DHT22;7458;49.002;8.472;2022-12-29T00:36:32;13.40;97.50
14735;DHT22;7458;49.002;8.472;2022-12-29T00:39:07;13.40;97.60
14735;DHT22;7458;49.002;8.472;2022-12-29T00:41:55;13.40;97.70
14735;DHT22;7458;49.002;8.472;2022-12-29T00:44:39;13.40;97.80
14735;DHT22;7458;49.002;8.472;2022-12-29T00:47:05;13.50;97.70
14735;DHT22;7458;49.002;8.472;2022-12-29T00:49:31;13.40;97.90
14735;DHT22;7458;49.002;8.472;2022-12-29T00:52:09;13.40;98.40
14735;DHT22;7458;49.002;8.472;2022-12-29T00:54:38;13.40;99.00
14735;DHT22;7458;49.002;8.472;2022-12-29T00:57:07;13.40;99.60
14735;DHT22;7458;49.002;8.472;2022-12-29T00:59:36;13.40;99.80
14735;DHT22;7458;49.002;8.472;2022-12-29T01:02:02;13.30;99.90
14735;DHT22;7458;49.002;8.472;2022-12-29T01:04:28;13.30;99.90
14735;DHT22;7458;49.002;8.472;2022-12-29T01:06:54;13.20;99.90
14735;DHT22;7458;49.002;8.472;2022-12-29T01:09:20;13.10;99.90
14735;DHT22;7458;49.002;8.472;2022-12-29T01:12:06;13.20;99.90
14735;DHT22;7458;49.002;8.472;2022-12-29T01:14:33;12.40;99.90
14735;DHT22;7458;49.002;8.472;2022-12-29T01:17:00;13.10;99.90
14735;DHT22;7458;49.002;8.472;2022-12-29T01:19:26;13.10;99.90
14735;DHT22;7458;49.002;8.472;2022-12-29T01:21:52;13.00;99.90
14735;DHT22;7458;49.002;8.472;2022-12-29T01:24:19;12.90;99.90
14735;DHT22;7458;49.002;8.472;2022-12-29T01:26:45;13.00;99.90
14735;DHT22;7458;49.002;8.472;2022-12-29T01:29:12;12.90;99.90
14735;DHT22;7458;49.002;8.472;2022-12-29T01:31:38;13.00;99.90
14735;DHT22;7458;49.002;8.472;2022-12-29T01:34:04;13.00;99.90
14735;DHT22;7458;49.002;8.472;2022-12-29T01:36:31;13.00;99.90
14735;DHT22;7458;49.002;8.472;2022-12-29T01:38:57;13.00;99.90
14735;DHT22;7458;49.002;8.472;2022-12-29T01:41:23;13.10;99.90
14735;DHT22;7458;49.002;8.472;2022-12-29T01:43:51;13.10;99.90
14735;DHT22;7458;49.002;8.472;2022-12-29T01:46:31;13.10;99.90
14735;DHT22;7458;49.002;8.472;2022-12-29T01:49:09;13.10;99.90
14735;DHT22;7458;49.002;8.472;2022-12-29T01:52:07;13.10;99.90
14735;DHT22;7458;49.002;8.472;2022-12-29T01:54:43;13.10;99.90
14735;DHT22;7458;49.002;8.472;2022-12-29T01:57:21;13.10;99.90
14735;DHT22;7458;49.002;8.472;2022-12-29T01:59:56;13.10;99.90
14735;DHT22;7458;49.002;8.472;2022-12-29T02:02:27;13.10;99.90
14735;DHT22;7458;49.002;8.472;2022-12-29T02:04:54;13.10;99.90
14735;DHT22;7458;49.002;8.472;2022-12-29T02:07:26;13.10;99.90
14735;DHT22;7458;49.002;8.472;2022-12-29T02:09:55;13.10;99.90
14735;DHT22;7458;49.002;8.472;2022-12-29T02:12:23;13.20;99.90
14735;DHT22;7458;49.002;8.472;2022-12-29T02:14:54;13.10;99.90
14735;DHT22;7458;49.002;8.472;2022-12-29T02:17:46;13.10;99.90
14735;DHT22;7458;49.002;8.472;2022-12-29T02:21:06;13.10;99.90
14735;DHT22;7458;49.002;8.472;2022-12-29T02:27:24;13.00;99.90
14735;DHT22;7458;49.002;8.472;2022-12-29T02:38:45;13.00;99.90
14735;DHT22;7458;49.002;8.472;2022-12-29T02:47:39;13.00;99.90
14735;DHT22;7458;49.002;8.472;2022-12-29T02:50:13;13.10;99.90
14735;DHT22;7458;49.002;8.472;2022-12-29T02:52:48;13.00;99.90
14735;DHT22;7458;49.002;8.472;2022-12-29T02:55:18;13.00;99.90
14735;DHT22;7458;49.002;8.472;2022-12-29T02:57:44;13.00;99.90
14735;DHT22;7458;49.002;8.472;2022-12-29T03:00:15;13.10;99.90
14735;DHT22;7458;49.002;8.472;2022-12-29T03:06:33;13.10;99.90
14735;DHT22;7458;49.002;8.472;2022-12-29T03:09:37;13.00;99.90
14735;DHT22;7458;49.002;8.472;2022-12-29T03:15:22;13.00;99.90
14735;DHT22;7458;49.002;8.472;2022-12-29T03:21:43;13.00;99.90
14735;DHT22;7458;49.002;8.472;2022-12-29T03:24:34;13.00;99.90
14735;DHT22;7458;49.002;8.472;2022-12-29T03:27:06;12.90;99.90
14735;DHT22;7458;49.002;8.472;2022-12-29T03:29:39;13.00;99.90
14735;DHT22;7458;49.002;8.472;2022-12-29T03:32:11;13.00;99.90
14735;DHT22;7458;49.002;8.472;2022-12-29T03:34:39;13.00;99.90
14735;DHT22;7458;49.002;8.472;2022-12-29T03:37:14;13.00;99.90
14735;DHT22;7458;49.002;8.472;2022-12-29T03:39:42;13.10;99.90
14735;DHT22;7458;49.002;8.472;2022-12-29T03:42:20;13.10;99.90
14735;DHT22;7458;49.002;8.472;2022-12-29T03:44:54;13.10;99.90
14735;DHT22;7458;49.002;8.472;2022-12-29T03:47:22;13.10;99.90
14735;DHT22;7458;49.002;8.472;2022-12-29T03:49:48;13.10;99.90
14735;DHT22;7458;49.002;8.472;2022-12-29T03:52:15;13.20;99.90
14735;DHT22;7458;49.002;8.472;2022-12-29T03:54:41;13.10;99.90
14735;DHT22;7458;49.002;8.472;2022-12-29T03:57:08;13.20;99.90
14735;DHT22;7458;49.002;8.472;2022-12-29T03:59:35;13.10;99.90
14735;DHT22;7458;49.002;8.472;2022-12-29T04:02:01;13.10;99.90
14735;DHT22;7458;49.002;8.472;2022-12-29T04:04:27;13.10;99.90
14735;DHT22;7458;49.002;8.472;2022-12-29T04:06:53;13.10;99.90
14735;DHT22;7458;49.002;8.472;2022-12-29T04:09:19;13.00;99.90
14735;DHT22;7458;49.002;8.472;2022-12-29T04:11:45;13.00;99.90
14735;DHT22;7458;49.002;8.472;2022-12-29T04:14:10;13.10;99.90
14735;DHT22;7458;49.002;8.472;2022-12-29T04:16:36;13.10;99.90
14735;DHT22;7458;49.002;8.472;2022-12-29T04:19:05;13.00;99.90
14735;DHT22;7458;49.002;8.472;2022-12-29T04:21:31;13.00;99.90
14735;DHT22;7458;49.002;8.472;2022-12-29T04:23:57;13.10;99.90
14735;DHT22;7458;49.002;8.472;2022-12-29T04:26:23;13.00;99.90
14735;DHT22;7458;49.002;8.472;2022-12-29T04:28:48;13.10;99.90
14735;DHT22;7458;49.002;8.472;2022-12-29T04:31:14;13.10;99.90
14735;DHT22;7458;49.002;8.472;2022-12-29T04:33:40;13.20;99.90
14735;DHT22;7458;49.002;8.472;2022-12-29T04:36:06;13.10;99.90
14735;DHT22;7458;49.002;8.472;2022-12-29T04:38:32;13.10;99.90
14735;DHT22;7458;49.002;8.472;2022-12-29T04:41:01;13.10;99.90
14735;DHT22;7458;49.002;8.472;2022-12-29T04:43:28;13.10;99.90
14735;DHT22;7458;49.002;8.472;2022-12-29T04:45:54;13.10;99.90
14735;DHT22;7458;49.002;8.472;2022-12-29T04:48:20;13.10;99.90
14735;DHT22;7458;49.002;8.472;2022-12-29T04:50:48;13.10;99.90
14735;DHT22;7458;49.002;8.472;2022-12-29T04:53:15;13.10;99.90
14735;DHT22;7458;49.002;8.472;2022-12-29T04:55:42;13.10;99.90
14735;DHT22;7458;49.002;8.472;2022-12-29T04:58:08;13.10;99.90
14735;DHT22;7458;49.002;8.472;2022-12-29T05:00:34;13.20;99.90
14735;DHT22;7458;49.002;8.472;2022-12-29T05:02:59;13.20;99.90
14735;DHT22;7458;49.002;8.472;2022-12-29T05:05:25;13.30;99.90
14735;DHT22;7458;49.002;8.472;2022-12-29T05:07:51;13.30;99.90
14735;DHT22;7458;49.002;8.472;2022-12-29T05:10:17;13.30;99.90
14735;DHT22;7458;49.002;8.472;2022-12-29T05:12:43;13.30;99.90
14735;DHT22;7458;49.002;8.472;2022-12-29T05:15:10;13.40;99.90
14735;DHT22;7458;49.002;8.472;2022-12-29T05:17:36;13.40;99.90
14735;DHT22;7458;49.002;8.472;2022-12-29T05:20:02;13.40;99.90
14735;DHT22;7458;49.002;8.472;2022-12-29T05:22:29;13.40;99.90
14735;DHT22;7458;49.002;8.472;2022-12-29T05:24:55;13.40;99.90
14735;DHT22;7458;49.002;8.472;2022-12-29T05:27:21;13.40;99.90
14735;DHT22;7458;49.002;8.472;2022-12-29T05:29:46;13.50;99.90
14735;DHT22;7458;49.002;8.472;2022-12-29T05:32:13;13.50;99.90
14735;DHT22;7458;49.002;8.472;2022-12-29T05:34:39;13.50;99.90
14735;DHT22;7458;49.002;8.472;2022-12-29T05:37:04;13.50;99.90
14735;DHT22;7458;49.002;8.472;2022-12-29T05:39:30;13.50;99.90
14735;DHT22;7458;49.002;8.472;2022-12-29T05:41:56;13.50;99.90
14735;DHT22;7458;49.002;8.472;2022-12-29T05:44:22;13.60;99.90
14735;DHT22;7458;49.002;8.472;2022-12-29T05:46:48;13.50;99.90
14735;DHT22;7458;49.002;8.472;2022-12-29T05:49:13;13.50;99.90
14735;DHT22;7458;49.002;8.472;2022-12-29T05:51:39;13.50;99.90
14735;DHT22;7458;49.002;8.472;2022-12-29T05:54:05;13.50;99.90
14735;DHT22;7458;49.002;8.472;2022-12-29T05:56:31;13.60;99.90
14735;DHT22;7458;49.002;8.472;2022-12-29T05:58:56;13.60;99.90
14735;DHT22;7458;49.002;8.472;2022-12-29T06:01:22;13.60;99.90
14735;DHT22;7458;49.002;8.472;2022-12-29T06:03:48;13.60;99.90
14735;DHT22;7458;49.002;8.472;2022-12-29T06:06:14;13.60;99.90
14735;DHT22;7458;49.002;8.472;2022-12-29T06:08:40;13.60;99.90
14735;DHT22;7458;49.002;8.472;2022-12-29T06:11:05;13.50;99.90
14735;DHT22;7458;49.002;8.472;2022-12-29T06:13:31;13.50;99.90
14735;DHT22;7458;49.002;8.472;2022-12-29T06:15:57;13.60;99.90
14735;DHT22;7458;49.002;8.472;2022-12-29T06:18:23;13.50;99.90
14735;DHT22;7458;49.002;8.472;2022-12-29T06:20:48;13.50;99.90
14735;DHT22;7458;49.002;8.472;2022-12-29T06:23:15;13.50;99.90
14735;DHT22;7458;49.002;8.472;2022-12-29T06:25:42;13.60;99.90
14735;DHT22;7458;49.002;8.472;2022-12-29T06:28:07;13.60;99.80
14735;DHT22;7458;49.002;8.472;2022-12-29T06:30:33;12.40;99.20
14735;DHT22;7458;49.002;8.472;2022-12-29T06:32:59;13.70;99.40
14735;DHT22;7458;49.002;8.472;2022-12-29T06:35:25;13.60;99.20
14735;DHT22;7458;49.002;8.472;2022-12-29T06:37:51;13.70;98.90
14735;DHT22;7458;49.002;8.472;2022-12-29T06:40:17;13.70;99.10
14735;DHT22;7458;49.002;8.472;2022-12-29T06:42:43;13.70;99.00
14735;DHT22;7458;49.002;8.472;2022-12-29T06:45:09;13.70;98.80
14735;DHT22;7458;49.002;8.472;2022-12-29T06:47:35;13.60;98.60
14735;DHT22;7458;49.002;8.472;2022-12-29T06:50:01;13.60;98.50
14735;DHT22;7458;49.002;8.472;2022-12-29T06:52:28;13.60;98.30
14735;DHT22;7458;49.002;8.472;2022-12-29T06:54:54;13.60;98.00
14735;DHT22;7458;49.002;8.472;2022-12-29T06:57:20;13.60;98.00
14735;DHT22;7458;49.002;8.472;2022-12-29T06:59:46;13.60;98.10
14735;DHT22;7458;49.002;8.472;2022-12-29T07:02:13;13.60;97.90
14735;DHT22;7458;49.002;8.472;2022-12-29T07:04:40;13.60;98.00
14735;DHT22;7458;49.002;8.472;2022-12-29T07:07:06;13.60;97.80
14735;DHT22;7458;49.002;8.472;2022-12-29T07:09:31;13.60;97.70
14735;DHT22;7458;49.002;8.472;2022-12-29T07:11:57;13.60;97.70
14735;DHT22;7458;49.002;8.472;2022-12-29T07:14:23;13.60;97.70
14735;DHT22;7458;49.002;8.472;2022-12-29T07:16:49;13.60;97.50
14735;DHT22;7458;49.002;8.472;2022-12-29T07:19:14;13.70;97.10
14735;DHT22;7458;49.002;8.472;2022-12-29T07:21:40;13.70;97.00
14735;DHT22;7458;49.002;8.472;2022-12-29T07:24:07;13.70;96.90
14735;DHT22;7458;49.002;8.472;2022-12-29T07:26:32;13.70;96.80
14735;DHT22;7458;49.002;8.472;2022-12-29T07:29:00;13.70;96.50
14735;DHT22;7458;49.002;8.472;2022-12-29T07:31:26;13.70;96.40
14735;DHT22;7458;49.002;8.472;2022-12-29T07:33:52;13.70;96.40
14735;DHT22;7458;49.002;8.472;2022-12-29T07:36:17;13.70;96.30
14735;DHT22;7458;49.002;8.472;2022-12-29T07:38:43;13.80;96.30
14735;DHT22;7458;49.002;8.472;2022-12-29T07:41:09;13.80;96.20
14735;DHT22;7458;49.002;8.472;2022-12-29T07:43:35;13.80;96.10
14735;DHT22;7458;49.002;8.472;2022-12-29T07:46:01;13.80;96.10
14735;DHT22;7458;49.002;8.472;2022-12-29T07:48:27;13.80;96.00
14735;DHT22;7458;49.002;8.472;2022-12-29T07:50:53;13.80;95.80
14735;DHT22;7458;49.002;8.472;2022-12-29T07:53:19;13.80;95.70
14735;DHT22;7458;49.002;8.472;2022-12-29T07:55:45;13.90;95.50
14735;DHT22;7458;49.002;8.472;2022-12-29T07:58:11;13.90;95.20
14735;DHT22;7458;49.002;8.472;2022-12-29T08:00:38;13.90;95.60
14735;DHT22;7458;49.002;8.472;2022-12-29T08:03:04;13.80;95.60
14735;DHT22;7458;49.002;8.472;2022-12-29T08:05:31;13.80;95.20
14735;DHT22;7458;49.002;8.472;2022-12-29T08:07:58;13.80;95.10
14735;DHT22;7458;49.002;8.472;2022-12-29T08:10:24;13.80;94.90
14735;DHT22;7458;49.002;8.472;2022-12-29T08:12:50;13.90;94.80
14735;DHT22;7458;49.002;8.472;2022-12-29T08:15:16;13.90;95.00
14735;DHT22;7458;49.002;8.472;2022-12-29T08:17:42;13.90;94.70
14735;DHT22;7458;49.002;8.472;2022-12-29T08:20:10;13.90;94.70
14735;DHT22;7458;49.002;8.472;2022-12-29T08:22:37;13.90;94.60
14735;DHT22;7458;49.002;8.472;2022-12-29T08:25:03;13.90;94.60
14735;DHT22;7458;49.002;8.472;2022-12-29T08:27:29;14.00;94.60
14735;DHT22;7458;49.002;8.472;2022-12-29T08:29:58;13.90;94.70
14735;DHT22;7458;49.002;8.472;2022-12-29T08:32:26;13.90;94.30
14735;DHT22;7458;49.002;8.472;2022-12-29T08:34:53;13.90;94.70
14735;DHT22;7458;49.002;8.472;2022-12-29T08:37:20;13.90;94.90
14735;DHT22;7458;49.002;8.472;2022-12-29T08:39:45;13.90;94.60
14735;DHT22;7458;49.002;8.472;2022-12-29T08:42:11;14.00;94.60
14735;DHT22;7458;49.002;8.472;2022-12-29T08:44:37;13.90;94.50
14735;DHT22;7458;49.002;8.472;2022-12-29T08:47:03;14.50;94.80
14735;DHT22;7458;49.002;8.472;2022-12-29T08:49:29;14.00;94.50
14735;DHT22;7458;49.002;8.472;2022-12-29T08:51:55;14.00;94.40
14735;DHT22;7458;49.002;8.472;2022-12-29T08:54:20;14.10;94.40
14735;DHT22;7458;49.002;8.472;2022-12-29T08:56:46;14.20;94.40
14735;DHT22;7458;49.002;8.472;2022-12-29T08:59:12;14.20;94.40
14735;DHT22;7458;49.002;8.472;2022-12-29T09:01:37;14.20;94.10
14735;DHT22;7458;49.002;8.472;2022-12-29T09:04:06;14.30;94.10
14735;DHT22;7458;49.002;8.472;2022-12-29T09:06:33;14.30;93.90
14735;DHT22;7458;49.002;8.472;2022-12-29T09:08:58;14.30;94.00
14735;DHT22;7458;49.002;8.472;2022-12-29T09:11:25;14.30;94.20
14735;DHT22;7458;49.002;8.472;2022-12-29T09:13:51;14.30;94.40
14735;DHT22;7458;49.002;8.472;2022-12-29T09:16:18;14.30;94.50
14735;DHT22;7458;49.002;8.472;2022-12-29T09:18:46;14.20;94.60
14735;DHT22;7458;49.002;8.472;2022-12-29T09:21:13;14.20;94.70
14735;DHT22;7458;49.002;8.472;2022-12-29T09:23:39;14.20;94.90
14735;DHT22;7458;49.002;8.472;2022-12-29T09:26:07;14.20;94.80
14735;DHT22;7458;49.002;8.472;2022-12-29T09:28:34;14.20;95.20
14735;DHT22;7458;49.002;8.472;2022-12-29T09:31:00;14.30;95.20
14735;DHT22;7458;49.002;8.472;2022-12-29T09:33:27;14.30;95.30
14735;DHT22;7458;49.002;8.472;2022-12-29T09:35:55;14.40;95.20
14735;DHT22;7458;49.002;8.472;2022-12-29T09:38:23;14.60;95.00
14735;DHT22;7458;49.002;8.472;2022-12-29T09:40:52;14.80;94.80
14735;DHT22;7458;49.002;8.472;2022-12-29T09:51:38;14.70;94.90
14735;DHT22;7458;49.002;8.472;2022-12-29T09:54:27;14.80;94.80
14735;DHT22;7458;49.002;8.472;2022-12-29T09:56:56;14.90;94.60
14735;DHT22;7458;49.002;8.472;2022-12-29T09:59:30;14.80;94.80
14735;DHT22;7458;49.002;8.472;2022-12-29T10:02:29;15.20;95.00
14735;DHT22;7458;49.002;8.472;2022-12-29T10:04:59;15.70;93.60
14735;DHT22;7458;49.002;8.472;2022-12-29T10:07:36;15.80;93.90
14735;DHT22;7458;49.002;8.472;2022-12-29T10:13:01;15.90;93.30
14735;DHT22;7458;49.002;8.472;2022-12-29T10:24:38;15.20;94.50
14735;DHT22;7458;49.002;8.472;2022-12-29T10:27:10;15.10;94.90
14735;DHT22;7458;49.002;8.472;2022-12-29T10:29:43;15.20;95.40
14735;DHT22;7458;49.002;8.472;2022-12-29T10:32:24;14.80;96.10
14735;DHT22;7458;49.002;8.472;2022-12-29T10:34:58;14.80;97.70
14735;DHT22;7458;49.002;8.472;2022-12-29T10:40:40;15.10;97.10
14735;DHT22;7458;49.002;8.472;2022-12-29T10:43:32;15.50;96.10
14735;DHT22;7458;49.002;8.472;2022-12-29T10:46:05;15.80;95.50
14735;DHT22;7458;49.002;8.472;2022-12-29T10:48:35;15.70;95.60
14735;DHT22;7458;49.002;8.472;2022-12-29T10:51:05;15.50;95.40
14735;DHT22;7458;49.002;8.472;2022-12-29T10:54:00;15.30;95.70
14735;DHT22;7458;49.002;8.472;2022-12-29T10:56:43;15.20;96.30
14735;DHT22;7458;49.002;8.472;2022-12-29T10:59:20;15.10;96.60
14735;DHT22;7458;49.002;8.472;2022-12-29T11:02:00;15.10;96.50
14735;DHT22;7458;49.002;8.472;2022-12-29T11:07:40;15.10;96.30
14735;DHT22;7458;49.002;8.472;2022-12-29T11:10:39;15.20;96.10
14735;DHT22;7458;49.002;8.472;2022-12-29T11:13:19;15.10;96.40
14735;DHT22;7458;49.002;8.472;2022-12-29T11:15:51;15.00;96.40
14735;DHT22;7458;49.002;8.472;2022-12-29T11:18:25;15.00;96.40
14735;DHT22;7458;49.002;8.472;2022-12-29T11:20:58;15.10;96.70
14735;DHT22;7458;49.002;8.472;2022-12-29T11:23:39;15.10;96.30
14735;DHT22;7458;49.002;8.472;2022-12-29T11:26:15;15.10;96.20
14735;DHT22;7458;49.002;8.472;2022-12-29T11:32:13;15.40;95.60
14735;DHT22;7458;49.002;8.472;2022-12-29T11:34:46;15.40;95.90
14735;DHT22;7458;49.002;8.472;2022-12-29T11:37:23;15.40;95.80
14735;DHT22;7458;49.002;8.472;2022-12-29T11:39:58;15.50;95.90
14735;DHT22;7458;49.002;8.472;2022-12-29T11:42:40;15.40;95.60
14735;DHT22;7458;49.002;8.472;2022-12-29T11:45:23;15.40;95.80
14735;DHT22;7458;49.002;8.472;2022-12-29T11:48:08;15.40;95.60
14735;DHT22;7458;49.002;8.472;2022-12-29T11:50:52;15.40;95.60
14735;DHT22;7458;49.002;8.472;2022-12-29T11:53:26;15.40;95.70
14735;DHT22;7458;49.002;8.472;2022-12-29T11:56:03;15.40;95.80
14735;DHT22;7458;49.002;8.472;2022-12-29T11:58:35;15.20;95.80
14735;DHT22;7458;49.002;8.472;2022-12-29T12:03:52;15.20;96.20
14735;DHT22;7458;49.002;8.472;2022-12-29T12:06:27;15.10;96.00
14735;DHT22;7458;49.002;8.472;2022-12-29T12:09:01;15.20;95.80
14735;DHT22;7458;49.002;8.472;2022-12-29T12:11:34;15.20;95.20
14735;DHT22;7458;49.002;8.472;2022-12-29T12:14:17;15.20;95.70
14735;DHT22;7458;49.002;8.472;2022-12-29T12:16:55;15.20;95.00
14735;DHT22;7458;49.002;8.472;2022-12-29T12:19:34;15.20;94.90
14735;DHT22;7458;49.002;8.472;2022-12-29T12:22:16;15.30;94.80
14735;DHT22;7458;49.002;8.472;2022-12-29T12:27:48;15.20;94.80
14735;DHT22;7458;49.002;8.472;2022-12-29T12:30:20;15.20;94.80
14735;DHT22;7458;49.002;8.472;2022-12-29T12:33:30;15.20;94.90
14735;DHT22;7458;49.002;8.472;2022-12-29T12:36:35;15.30;95.10
14735;DHT22;7458;49.002;8.472;2022-12-29T12:48:40;15.10;95.50
14735;DHT22;7458;49.002;8.472;2022-12-29T12:51:40;15.00;95.70
14735;DHT22;7458;49.002;8.472;2022-12-29T12:57:23;14.90;96.40
14735;DHT22;7458;49.002;8.472;2022-12-29T13:00:13;14.90;96.50
14735;DHT22;7458;49.002;8.472;2022-12-29T13:11:02;15.20;96.50
14735;DHT22;7458;49.002;8.472;2022-12-29T13:14:14;15.10;96.60
14735;DHT22;7458;49.002;8.472;2022-12-29T13:17:05;15.20;96.60
14735;DHT22;7458;49.002;8.472;2022-12-29T13:22:44;15.10;96.60
14735;DHT22;7458;49.002;8.472;2022-12-29T13:26:05;15.10;96.90
14735;DHT22;7458;49.002;8.472;2022-12-29T13:28:55;15.00;97.20
14735;DHT22;7458;49.002;8.472;2022-12-29T13:37:13;14.80;99.60
14735;DHT22;7458;49.002;8.472;2022-12-29T13:39:51;14.60;99.80
14735;DHT22;7458;49.002;8.472;2022-12-29T13:42:20;14.50;99.70
14735;DHT22;7458;49.002;8.472;2022-12-29T13:45:02;14.50;99.90
14735;DHT22;7458;49.002;8.472;2022-12-29T13:47:42;14.40;99.90
14735;DHT22;7458;49.002;8.472;2022-12-29T13:50:25;14.20;99.90
14735;DHT22;7458;49.002;8.472;2022-12-29T13:53:27;14.10;99.90
14735;DHT22;7458;49.002;8.472;2022-12-29T13:59:21;13.80;99.90
14735;DHT22;7458;49.002;8.472;2022-12-29T14:02:13;13.50;99.90
14735;DHT22;7458;49.002;8.472;2022-12-29T14:05:03;13.30;99.90
14735;DHT22;7458;49.002;8.472;2022-12-29T14:08:16;13.10;99.90
14735;DHT22;7458;49.002;8.472;2022-12-29T14:10:50;13.00;99.90
14735;DHT22;7458;49.002;8.472;2022-12-29T14:13:20;12.90;99.90
14735;DHT22;7458;49.002;8.472;2022-12-29T14:15:54;12.90;99.90
14735;DHT22;7458;49.002;8.472;2022-12-29T14:18:28;12.80;99.90
14735;DHT22;7458;49.002;8.472;2022-12-29T14:23:45;12.70;99.90
14735;DHT22;7458;49.002;8.472;2022-12-29T14:28:47;12.60;99.90
14735;DHT22;7458;49.002;8.472;2022-12-29T14:33:40;12.60;99.90
14735;DHT22;7458;49.002;8.472;2022-12-29T14:36:38;12.40;99.90
14735;DHT22;7458;49.002;8.472;2022-12-29T14:42:12;11.90;99.90
14735;DHT22;7458;49.002;8.472;2022-12-29T14:44:47;11.70;99.90
14735;DHT22;7458;49.002;8.472;2022-12-29T14:47:32;11.40;99.90
14735;DHT22;7458;49.002;8.472;2022-12-29T14:50:07;11.30;99.90
14735;DHT22;7458;49.002;8.472;2022-12-29T14:57:57;11.10;99.90
14735;DHT22;7458;49.002;8.472;2022-12-29T15:00:32;11.10;99.90
14735;DHT22;7458;49.002;8.472;2022-12-29T15:03:36;11.10;99.90
14735;DHT22;7458;49.002;8.472;2022-12-29T15:06:13;11.00;99.90
14735;DHT22;7458;49.002;8.472;2022-12-29T15:08:51;11.10;99.90
14735;DHT22;7458;49.002;8.472;2022-12-29T15:11:42;11.10;99.90
14735;DHT22;7458;49.002;8.472;2022-12-29T15:14:35;11.30;99.90
14735;DHT22;7458;49.002;8.472;2022-12-29T15:17:22;11.10;99.90
14735;DHT22;7458;49.002;8.472;2022-12-29T15:20:13;11.20;99.90
14735;DHT22;7458;49.002;8.472;2022-12-29T15:22:57;11.30;99.90
14735;DHT22;7458;49.002;8.472;2022-12-29T15:25:25;11.30;99.90
14735;DHT22;7458;49.002;8.472;2022-12-29T15:27:55;11.30;99.90
14735;DHT22;7458;49.002;8.472;2022-12-29T15:30:25;11.30;99.90
14735;DHT22;7458;49.002;8.472;2022-12-29T15:32:51;11.30;99.90
14735;DHT22;7458;49.002;8.472;2022-12-29T15:35:35;11.30;99.90
14735;DHT22;7458;49.002;8.472;2022-12-29T15:38:16;11.20;99.90
14735;DHT22;7458;49.002;8.472;2022-12-29T15:40:53;11.10;99.90
14735;DHT22;7458;49.002;8.472;2022-12-29T15:43:54;11.10;99.90
14735;DHT22;7458;49.002;8.472;2022-12-29T15:47:06;11.10;99.90
14735;DHT22;7458;49.002;8.472;2022-12-29T15:49:42;11.00;99.90
14735;DHT22;7458;49.002;8.472;2022-12-29T15:52:10;11.00;99.90
14735;DHT22;7458;49.002;8.472;2022-12-29T15:54:38;11.00;99.90
14735;DHT22;7458;49.002;8.472;2022-12-29T15:57:21;11.00;99.90
14735;DHT22;7458;49.002;8.472;2022-12-29T15:59:48;11.00;99.90
14735;DHT22;7458;49.002;8.472;2022-12-29T16:02:14;11.00;99.90
14735;DHT22;7458;49.002;8.472;2022-12-29T16:04:40;11.00;99.90
14735;DHT22;7458;49.002;8.472;2022-12-29T16:07:31;11.00;99.90
14735;DHT22;7458;49.002;8.472;2022-12-29T16:10:00;11.10;99.90
14735;DHT22;7458;49.002;8.472;2022-12-29T16:12:33;11.10;99.90
14735;DHT22;7458;49.002;8.472;2022-12-29T16:15:06;11.10;99.90
14735;DHT22;7458;49.002;8.472;2022-12-29T16:17:46;11.10;99.90
14735;DHT22;7458;49.002;8.472;2022-12-29T16:20:25;11.10;99.90
14735;DHT22;7458;49.002;8.472;2022-12-29T16:23:00;11.10;99.90
14735;DHT22;7458;49.002;8.472;2022-12-29T16:25:31;11.00;99.90
14735;DHT22;7458;49.002;8.472;2022-12-29T16:28:01;11.00;99.90
14735;DHT22;7458;49.002;8.472;2022-12-29T16:30:32;11.00;99.90
14735;DHT22;7458;49.002;8.472;2022-12-29T16:33:05;11.00;99.90
14735;DHT22;7458;49.002;8.472;2022-12-29T16:38:16;11.10;99.90
14735;DHT22;7458;49.002;8.472;2022-12-29T16:40:57;11.00;99.90
14735;DHT22;7458;49.002;8.472;2022-12-29T16:43:32;11.10;99.90
14735;DHT22;7458;49.002;8.472;2022-12-29T16:46:26;11.00;99.90
14735;DHT22;7458;49.002;8.472;2022-12-29T16:48:56;11.00;99.90
14735;DHT22;7458;49.002;8.472;2022-12-29T16:51:36;10.90;99.90
14735;DHT22;7458;49.002;8.472;2022-12-29T16:54:03;10.90;99.90
14735;DHT22;7458;49.002;8.472;2022-12-29T16:56:34;10.90;99.90
14735;DHT22;7458;49.002;8.472;2022-12-29T16:59:05;11.00;99.90
14735;DHT22;7458;49.002;8.472;2022-12-29T17:01:38;10.90;99.90
14735;DHT22;7458;49.002;8.472;2022-12-29T17:04:08;10.90;99.90
14735;DHT22;7458;49.002;8.472;2022-12-29T17:06:35;11.00;99.90
14735;DHT22;7458;49.002;8.472;2022-12-29T17:09:01;11.40;99.90
14735;DHT22;7458;49.002;8.472;2022-12-29T17:11:33;11.30;99.90
14735;DHT22;7458;49.002;8.472;2022-12-29T17:14:21;11.30;99.90
14735;DHT22;7458;49.002;8.472;2022-12-29T17:17:15;11.20;99.90
14735;DHT22;7458;49.002;8.472;2022-12-29T17:19:56;11.10;99.90
14735;DHT22;7458;49.002;8.472;2022-12-29T17:22:26;11.00;99.90
14735;DHT22;7458;49.002;8.472;2022-12-29T17:24:58;10.90;99.90
14735;DHT22;7458;49.002;8.472;2022-12-29T17:27:27;10.80;99.90
14735;DHT22;7458;49.002;8.472;2022-12-29T17:29:57;10.70;99.90
14735;DHT22;7458;49.002;8.472;2022-12-29T17:32:26;10.70;99.90
14735;DHT22;7458;49.002;8.472;2022-12-29T17:34:52;10.80;99.90
14735;DHT22;7458;49.002;8.472;2022-12-29T17:39:49;10.80;99.90
14735;DHT22;7458;49.002;8.472;2022-12-29T17:42:17;10.70;99.90
14735;DHT22;7458;49.002;8.472;2022-12-29T17:44:44;10.70;99.90
14735;DHT22;7458;49.002;8.472;2022-12-29T17:47:10;10.70;99.90
14735;DHT22;7458;49.002;8.472;2022-12-29T17:49:36;10.60;99.90
14735;DHT22;7458;49.002;8.472;2022-12-29T17:52:03;10.60;99.90
14735;DHT22;7458;49.002;8.472;2022-12-29T17:54:29;10.50;99.90
14735;DHT22;7458;49.002;8.472;2022-12-29T17:56:56;10.50;99.90
14735;DHT22;7458;49.002;8.472;2022-12-29T17:59:22;10.50;99.90
14735;DHT22;7458;49.002;8.472;2022-12-29T18:01:48;10.50;99.90
14735;DHT22;7458;49.002;8.472;2022-12-29T18:04:16;10.50;99.90
14735;DHT22;7458;49.002;8.472;2022-12-29T18:06:44;10.50;99.90
14735;DHT22;7458;49.002;8.472;2022-12-29T18:09:10;10.50;99.90
14735;DHT22;7458;49.002;8.472;2022-12-29T18:11:39;10.50;99.90
14735;DHT22;7458;49.002;8.472;2022-12-29T18:14:13;10.40;99.90
14735;DHT22;7458;49.002;8.472;2022-12-29T18:16:40;10.40;99.90